createdAt,value
2023-02-06T00:03:00.726Z,-2.81
2023-02-06T00:07:03.409Z,-2.88
2023-02-06T00:11:07.544Z,-3.22
2023-02-06T00:15:08.650Z,-3.12
2023-02-06T00:19:08.856Z,-3.22
2023-02-06T00:23:11.503Z,-3.09
2023-02-06T00:27:11.671Z,-3.27
2023-02-06T00:31:12.906Z,-3.16
2023-02-06T00:35:13.057Z,-3.39
2023-02-06T00:39:16.876Z,-3.37
2023-02-06T00:43:17.411Z,-3.44
2023-02-06T00:47:17.797Z,-3.47
2023-02-06T00:51:19.161Z,-3.68
2023-02-06T00:55:22.132Z,-3.73
2023-02-06T00:59:22.266Z,-3.54
2023-02-06T01:03:22.323Z,-3.45
2023-02-06T01:07:22.434Z,-3.36
2023-02-06T01:11:28.599Z,-3.54
2023-02-06T01:15:28.988Z,-3.67
2023-02-06T01:19:29.689Z,-3.66
2023-02-06T01:23:29.837Z,-3.53
2023-02-06T01:27:33.132Z,-3.62
2023-02-06T01:31:34.836Z,-3.26
2023-02-06T01:35:37.630Z,-3.12
2023-02-06T01:39:37.973Z,-2.96
2023-02-06T01:43:45.526Z,-2.81
2023-02-06T01:47:45.611Z,-2.91
2023-02-06T01:51:46.675Z,-2.93
2023-02-06T01:55:50.443Z,-2.40
2023-02-06T02:00:01.896Z,-2.28
2023-02-06T02:04:20.733Z,-2.11
2023-02-06T02:08:29.373Z,-2.17
2023-02-06T02:12:29.686Z,-2.03
2023-02-06T02:16:50.227Z,-1.91
2023-02-06T02:21:39.219Z,-1.82
2023-02-06T02:26:24.675Z,-1.62
2023-02-06T02:31:03.531Z,-1.59
2023-02-06T02:35:25.371Z,-1.76
2023-02-06T02:39:38.242Z,-2.07
2023-02-06T02:43:45.647Z,-2.33
2023-02-06T02:48:00.889Z,-2.61
2023-02-06T02:52:05.310Z,-2.92
2023-02-06T02:56:12.761Z,-3.06
2023-02-06T03:00:16.069Z,-3.21
2023-02-06T03:04:25.723Z,-3.21
2023-02-06T03:08:41.961Z,-3.45
2023-02-06T03:12:48.805Z,-3.43
2023-02-06T03:16:55.508Z,-3.43
2023-02-06T03:20:55.977Z,-3.65
2023-02-06T03:25:00.795Z,-3.82
2023-02-06T03:29:06.930Z,-3.78
2023-02-06T03:33:11.070Z,-4.11
2023-02-06T03:37:12.164Z,-3.84
2023-02-06T03:41:18.004Z,-3.79
2023-02-06T03:45:25.515Z,-3.89
2023-02-06T03:49:32.167Z,-3.61
2023-02-06T03:53:36.181Z,-3.69
2023-02-06T03:57:40.871Z,-3.98
2023-02-06T04:01:45.131Z,-3.87
2023-02-06T04:05:45.347Z,-3.41
2023-02-06T04:09:45.409Z,-3.61
2023-02-06T04:13:48.026Z,-3.45
2023-02-06T04:17:59.534Z,-3.33
2023-02-06T04:22:00.921Z,-3.21
2023-02-06T04:26:01.212Z,-3.22
2023-02-06T04:30:04.100Z,-3.26
2023-02-06T04:34:04.210Z,-3.38
2023-02-06T04:38:04.341Z,-3.59
2023-02-06T04:42:04.657Z,-3.53
2023-02-06T04:46:07.720Z,-3.53
2023-02-06T04:50:10.581Z,-3.57
2023-02-06T04:54:14.569Z,-3.28
2023-02-06T04:58:15.040Z,-3.45
2023-02-06T05:02:18.054Z,-3.36
2023-02-06T05:06:19.123Z,-3.52
2023-02-06T05:10:19.513Z,-3.51
2023-02-06T05:14:19.685Z,-3.43
2023-02-06T05:18:23.140Z,-3.33
2023-02-06T05:22:23.215Z,-3.10
2023-02-06T05:26:23.733Z,-2.96
2023-02-06T05:30:24.161Z,-2.80
2023-02-06T05:34:27.159Z,-2.42
2023-02-06T05:38:27.404Z,-2.30
2023-02-06T05:42:28.061Z,-2.39
2023-02-06T05:46:28.458Z,-2.19
2023-02-06T05:50:31.237Z,-1.93
2023-02-06T05:54:32.492Z,-1.99
2023-02-06T05:58:32.632Z,-1.90
2023-02-06T06:02:32.691Z,-1.70
2023-02-06T06:06:35.487Z,-1.61
2023-02-06T06:10:35.622Z,-1.57
2023-02-06T06:14:35.682Z,-1.45
2023-02-06T06:18:35.920Z,-1.35
2023-02-06T06:22:39.659Z,-1.41
2023-02-06T06:26:39.749Z,-1.29
2023-02-06T06:30:40.282Z,-1.38
2023-02-06T06:34:40.366Z,-1.24
2023-02-06T06:38:43.087Z,-1.29
2023-02-06T06:42:43.346Z,-1.35
2023-02-06T06:46:43.540Z,-1.33
2023-02-06T06:50:43.756Z,-1.07
2023-02-06T06:54:46.714Z,-1.15
2023-02-06T06:58:46.998Z,-1.14
2023-02-06T07:02:47.331Z,-0.85
2023-02-06T07:06:47.468Z,-0.62
2023-02-06T07:10:50.836Z,-0.64
2023-02-06T07:14:51.078Z,-0.68
2023-02-06T07:18:51.200Z,-0.71
2023-02-06T07:22:51.502Z,-0.60
2023-02-06T07:26:54.112Z,-0.53
2023-02-06T07:30:54.173Z,-0.39
2023-02-06T07:34:54.332Z,-0.29
2023-02-06T07:38:54.389Z,-0.38
2023-02-06T07:42:57.026Z,-0.17
2023-02-06T07:47:00.486Z,0.08
2023-02-06T07:51:06.225Z,0.16
2023-02-06T07:55:06.833Z,0.16
2023-02-06T07:59:10.288Z,0.37
2023-02-06T08:03:10.917Z,0.17
2023-02-06T08:07:15.075Z,0.88
2023-02-06T08:11:18.704Z,0.68
2023-02-06T08:15:21.656Z,0.89
2023-02-06T08:19:21.894Z,1.03
2023-02-06T08:23:22.278Z,1.18
2023-02-06T08:27:22.455Z,1.43
2023-02-06T08:31:28.936Z,1.66
2023-02-06T08:35:29.556Z,1.84
2023-02-06T08:39:30.749Z,1.76
2023-02-06T08:43:33.013Z,1.90
2023-02-06T08:47:35.869Z,1.91
2023-02-06T08:51:37.937Z,1.83
2023-02-06T08:55:38.608Z,2.27
2023-02-06T08:59:39.051Z,3.09
2023-02-06T09:03:41.877Z,3.97
2023-02-06T09:07:41.976Z,5.22
2023-02-06T09:11:42.560Z,5.28
2023-02-06T09:15:44.155Z,5.20
2023-02-06T09:19:46.933Z,5.16
2023-02-06T09:23:50.144Z,5.36
2023-02-06T09:27:53.163Z,5.24
2023-02-06T09:31:53.292Z,5.52
2023-02-06T09:36:05.444Z,5.38
2023-02-06T09:40:05.606Z,5.43
2023-02-06T09:44:15.310Z,5.21
2023-02-06T09:48:23.317Z,4.86
2023-02-06T09:53:01.857Z,4.92
2023-02-06T09:57:10.844Z,5.18
2023-02-06T10:01:22.187Z,5.48
2023-02-06T10:05:36.809Z,5.41
2023-02-06T10:09:45.726Z,5.44
2023-02-06T10:13:54.542Z,5.18
2023-02-06T10:18:03.082Z,5.35
2023-02-06T10:22:09.976Z,5.60
2023-02-06T10:26:18.660Z,5.59
2023-02-06T10:30:22.668Z,5.81
2023-02-06T10:35:06.387Z,5.93
2023-02-06T10:39:27.846Z,6.02
2023-02-06T10:43:43.708Z,5.67
2023-02-06T10:47:55.186Z,5.50
2023-02-06T10:52:02.830Z,5.64
2023-02-06T10:56:07.180Z,5.38
2023-02-06T11:00:20.223Z,5.46
2023-02-06T11:04:27.965Z,5.64
2023-02-06T11:08:33.870Z,5.46
2023-02-06T11:12:39.017Z,4.94
2023-02-06T11:16:43.241Z,5.02
2023-02-06T11:20:47.425Z,5.11
2023-02-06T11:25:04.114Z,5.06
2023-02-06T11:29:18.816Z,5.23
2023-02-06T11:33:31.236Z,5.23
2023-02-06T11:37:38.481Z,5.54
2023-02-06T11:41:38.617Z,5.48
2023-02-06T11:45:39.621Z,5.26
2023-02-06T11:49:42.737Z,5.60
2023-02-06T11:53:58.549Z,5.42
2023-02-06T11:58:22.485Z,5.28
2023-02-06T12:02:32.042Z,5.52
2023-02-06T12:06:39.096Z,5.14
2023-02-06T12:10:49.164Z,5.20
2023-02-06T12:14:55.835Z,5.30
2023-02-06T12:19:00.725Z,5.29
2023-02-06T12:23:14.722Z,4.89
2023-02-06T12:27:22.661Z,4.89
2023-02-06T12:31:32.234Z,4.83
2023-02-06T12:35:43.878Z,5.07
2023-02-06T12:39:47.405Z,4.98
2023-02-06T12:43:54.733Z,5.09
2023-02-06T12:48:04.447Z,5.09
2023-02-06T12:52:17.452Z,5.19
2023-02-06T12:56:31.428Z,5.07
2023-02-06T13:01:08.289Z,5.07
2023-02-06T13:05:25.221Z,5.08
2023-02-06T13:09:32.462Z,5.32
2023-02-06T13:13:39.310Z,5.19
2023-02-06T13:17:44.880Z,5.34
2023-02-06T13:21:53.873Z,5.36
2023-02-06T13:25:56.973Z,5.18
2023-02-06T13:30:18.557Z,5.02
2023-02-06T13:34:21.743Z,5.04
2023-02-06T13:38:42.379Z,5.09
2023-02-06T13:42:51.993Z,5.07
2023-02-06T13:47:31.287Z,5.03
2023-02-06T13:51:52.567Z,5.07
2023-02-06T13:56:22.000Z,4.90
2023-02-06T14:00:28.995Z,4.71
2023-02-06T14:04:34.549Z,4.98
2023-02-06T14:08:51.516Z,4.78
2023-02-06T14:13:10.664Z,4.70
2023-02-06T14:17:28.280Z,4.84
2023-02-06T14:21:49.593Z,4.66
2023-02-06T14:26:27.607Z,4.54
2023-02-06T14:30:40.380Z,4.67
2023-02-06T14:35:01.555Z,4.68
2023-02-06T14:39:48.814Z,4.53
2023-02-06T14:43:53.599Z,4.42
2023-02-06T14:47:56.046Z,4.50
2023-02-06T14:51:56.406Z,4.30
2023-02-06T14:56:12.387Z,3.93
2023-02-06T15:00:22.487Z,4.01
2023-02-06T15:04:26.140Z,3.97
2023-02-06T15:08:26.190Z,3.88
2023-02-06T15:12:32.195Z,3.86
2023-02-06T15:16:33.123Z,3.98
2023-02-06T15:20:40.471Z,3.86
2023-02-06T15:25:13.102Z,3.60
2023-02-06T15:29:23.081Z,3.79
2023-02-06T15:38:42.834Z,3.34
2023-02-06T15:42:48.346Z,3.43
2023-02-06T15:46:55.730Z,3.54
2023-02-06T15:51:05.765Z,3.23
2023-02-06T15:55:08.807Z,3.45
2023-02-06T15:59:21.934Z,3.40
2023-02-06T16:03:32.681Z,3.65
2023-02-06T16:07:37.456Z,3.19
2023-02-06T16:11:52.455Z,3.13
2023-02-06T16:16:22.926Z,3.54
2023-02-06T16:20:40.993Z,3.55
2023-02-06T16:24:41.204Z,3.22
2023-02-06T16:28:52.555Z,3.52
2023-02-06T16:32:55.562Z,3.32
2023-02-06T16:37:01.210Z,3.58
2023-02-06T16:41:02.579Z,3.28
2023-02-06T16:45:12.099Z,3.30
2023-02-06T16:49:16.450Z,3.23
2023-02-06T16:53:24.056Z,3.78
2023-02-06T16:57:30.897Z,3.54
2023-02-06T17:01:33.182Z,3.23
2023-02-06T17:05:36.190Z,3.25
2023-02-06T17:09:39.123Z,3.45
2023-02-06T17:13:39.355Z,3.27
2023-02-06T17:17:39.754Z,3.55
2023-02-06T17:21:40.136Z,3.50
2023-02-06T17:25:46.347Z,3.54
2023-02-06T17:29:47.766Z,3.47
2023-02-06T17:33:48.185Z,3.28
2023-02-06T17:37:49.335Z,3.14
2023-02-06T17:41:53.180Z,3.08
2023-02-06T17:45:53.258Z,3.07
2023-02-06T17:49:53.556Z,2.98
2023-02-06T17:53:54.716Z,2.75
2023-02-06T17:57:59.103Z,2.82
2023-02-06T18:02:00.136Z,2.66
2023-02-06T18:06:02.804Z,2.68
2023-02-06T18:10:11.128Z,2.77
2023-02-06T18:14:13.876Z,2.75
2023-02-06T18:18:17.959Z,2.67
2023-02-06T18:22:27.106Z,3.05
2023-02-06T18:26:30.797Z,2.73
2023-02-06T18:30:36.833Z,2.41
2023-02-06T18:34:37.642Z,2.65
2023-02-06T18:38:38.264Z,2.58
2023-02-06T18:42:50.795Z,2.41
2023-02-06T18:46:53.909Z,2.76
2023-02-06T18:50:56.972Z,2.45
2023-02-06T18:54:58.825Z,2.55
2023-02-06T18:58:59.256Z,2.45
2023-02-06T19:03:04.679Z,2.57
2023-02-06T19:07:04.862Z,2.52
2023-02-06T19:11:05.222Z,2.00
2023-02-06T19:15:05.527Z,1.80
2023-02-06T19:19:09.753Z,1.50
2023-02-06T19:23:10.253Z,1.29
2023-02-06T19:27:10.575Z,0.98
2023-02-06T19:31:13.143Z,0.69
2023-02-06T19:35:17.325Z,0.01
2023-02-06T19:39:17.737Z,-0.16
2023-02-06T19:43:19.119Z,-0.27
2023-02-06T19:47:19.289Z,-0.33
2023-02-06T19:51:25.966Z,-0.54
2023-02-06T19:55:26.102Z,-0.59
2023-02-06T19:59:29.481Z,-0.73
2023-02-06T20:03:29.754Z,-1.18
2023-02-06T20:07:33.157Z,-0.93
2023-02-06T20:11:35.607Z,-1.14
2023-02-06T20:15:41.259Z,-1.29
2023-02-06T20:19:41.587Z,-1.18
2023-02-06T20:23:44.279Z,-1.22
2023-02-06T20:27:44.413Z,-1.42
2023-02-06T20:31:45.083Z,-1.51
2023-02-06T20:35:46.105Z,-1.57
2023-02-06T20:39:49.556Z,-1.71
2023-02-06T20:43:51.150Z,-1.89
2023-02-06T20:47:51.348Z,-2.19
2023-02-06T20:51:52.809Z,-2.05
2023-02-06T20:55:55.710Z,-2.00
2023-02-06T20:59:56.188Z,-2.08
2023-02-06T21:04:02.657Z,-2.01
2023-02-06T21:08:04.573Z,-1.89
2023-02-06T21:12:08.069Z,-1.76
2023-02-06T21:16:10.865Z,-2.01
2023-02-06T21:20:14.038Z,-1.77
2023-02-06T21:24:14.662Z,-1.51
2023-02-06T21:28:19.304Z,-1.43
2023-02-06T21:32:19.519Z,-1.24
2023-02-06T21:36:21.322Z,-1.33
2023-02-06T21:40:21.641Z,-1.54
2023-02-06T21:44:26.601Z,-1.98
2023-02-06T21:48:26.632Z,-1.98
2023-02-06T21:52:26.821Z,-1.92
2023-02-06T21:56:30.336Z,-2.37
2023-02-06T22:00:32.991Z,-2.54
2023-02-06T22:04:33.430Z,-2.53
2023-02-06T22:08:34.469Z,-2.57
2023-02-06T22:12:34.792Z,-2.37
2023-02-06T22:16:37.581Z,-2.29
2023-02-06T22:20:37.615Z,-2.44
2023-02-06T22:24:37.673Z,-2.45
2023-02-06T22:28:38.424Z,-2.35
2023-02-06T22:32:42.943Z,-2.38
2023-02-06T22:36:44.632Z,-2.35
2023-02-06T22:40:44.676Z,-2.14
2023-02-06T22:44:44.750Z,-1.93
2023-02-06T22:48:47.417Z,-1.96
2023-02-06T22:52:59.952Z,-1.83
2023-02-06T22:57:00.239Z,-1.69
2023-02-06T23:01:05.494Z,-1.65
2023-02-06T23:05:10.583Z,-1.65
2023-02-06T23:09:15.330Z,-1.95
2023-02-06T23:13:15.501Z,-2.08
2023-02-06T23:17:15.588Z,-2.01
2023-02-06T23:21:20.921Z,-2.49
2023-02-06T23:25:21.179Z,-2.10
2023-02-06T23:29:25.531Z,-2.33
2023-02-06T23:33:25.759Z,-2.23
2023-02-06T23:37:28.830Z,-1.88
2023-02-06T23:41:30.961Z,-1.83
2023-02-06T23:45:31.412Z,-1.96
2023-02-06T23:49:31.689Z,-1.90
2023-02-06T23:53:34.787Z,-2.12
2023-02-06T23:57:37.886Z,-2.16
